sensor_id;sensor_type;location;lat;lon;timestamp;P1;durP1;ratioP1;P2;durP2;ratioP2
73154;SDS011;61364;52.418;7.382;2022-12-05T00:01:48;35.10;;;34.03;;
73154;SDS011;61364;52.418;7.382;2022-12-05T00:04:15;35.06;;;33.95;;
73154;SDS011;61364;52.418;7.382;2022-12-05T00:06:40;35.12;;;34.00;;
73154;SDS011;61364;52.418;7.382;2022-12-05T00:09:07;35.54;;;34.63;;
73154;SDS011;61364;52.418;7.382;2022-12-05T00:11:35;34.83;;;33.53;;
73154;SDS011;61364;52.418;7.382;2022-12-05T00:14:02;34.77;;;33.75;;
73154;SDS011;61364;52.418;7.382;2022-12-05T00:16:29;35.19;;;34.31;;
73154;SDS011;61364;52.418;7.382;2022-12-05T00:19:11;35.30;;;34.23;;
73154;SDS011;61364;52.418;7.382;2022-12-05T00:21:37;35.84;;;34.54;;
73154;SDS011;61364;52.418;7.382;2022-12-05T00:24:17;35.09;;;33.83;;
73154;SDS011;61364;52.418;7.382;2022-12-05T00:26:44;36.06;;;34.83;;
73154;SDS011;61364;52.418;7.382;2022-12-05T00:29:10;35.76;;;34.79;;
73154;SDS011;61364;52.418;7.382;2022-12-05T00:34:22;36.08;;;34.89;;
73154;SDS011;61364;52.418;7.382;2022-12-05T00:36:47;38.09;;;36.37;;
73154;SDS011;61364;52.418;7.382;2022-12-05T00:39:21;36.73;;;35.26;;
73154;SDS011;61364;52.418;7.382;2022-12-05T00:41:46;36.16;;;34.99;;
73154;SDS011;61364;52.418;7.382;2022-12-05T00:44:12;37.60;;;35.91;;
73154;SDS011;61364;52.418;7.382;2022-12-05T00:46:49;36.10;;;34.89;;
73154;SDS011;61364;52.418;7.382;2022-12-05T00:49:17;36.04;;;35.15;;
73154;SDS011;61364;52.418;7.382;2022-12-05T00:51:43;36.69;;;35.41;;
73154;SDS011;61364;52.418;7.382;2022-12-05T00:54:09;35.40;;;34.57;;
73154;SDS011;61364;52.418;7.382;2022-12-05T00:56:36;35.70;;;34.86;;
73154;SDS011;61364;52.418;7.382;2022-12-05T01:01:49;34.02;;;33.11;;
73154;SDS011;61364;52.418;7.382;2022-12-05T01:06:53;34.51;;;33.75;;
73154;SDS011;61364;52.418;7.382;2022-12-05T01:09:20;35.42;;;34.38;;
73154;SDS011;61364;52.418;7.382;2022-12-05T01:11:54;35.31;;;34.26;;
73154;SDS011;61364;52.418;7.382;2022-12-05T01:14:20;34.47;;;33.80;;
73154;SDS011;61364;52.418;7.382;2022-12-05T01:16:47;33.87;;;33.17;;
73154;SDS011;61364;52.418;7.382;2022-12-05T01:19:15;34.30;;;33.45;;
73154;SDS011;61364;52.418;7.382;2022-12-05T01:21:41;33.36;;;32.75;;
73154;SDS011;61364;52.418;7.382;2022-12-05T01:27:05;34.23;;;33.46;;
73154;SDS011;61364;52.418;7.382;2022-12-05T01:29:47;34.18;;;33.57;;
73154;SDS011;61364;52.418;7.382;2022-12-05T01:32:13;34.14;;;32.97;;
73154;SDS011;61364;52.418;7.382;2022-12-05T01:34:39;32.53;;;31.90;;
73154;SDS011;61364;52.418;7.382;2022-12-05T01:37:04;33.56;;;32.77;;
73154;SDS011;61364;52.418;7.382;2022-12-05T01:39:30;33.08;;;32.25;;
73154;SDS011;61364;52.418;7.382;2022-12-05T01:47:11;32.76;;;31.61;;
73154;SDS011;61364;52.418;7.382;2022-12-05T01:52:29;32.56;;;31.90;;
73154;SDS011;61364;52.418;7.382;2022-12-05T01:54:59;32.52;;;31.89;;
73154;SDS011;61364;52.418;7.382;2022-12-05T01:57:33;33.05;;;32.24;;
73154;SDS011;61364;52.418;7.382;2022-12-05T02:00:01;33.11;;;31.97;;
73154;SDS011;61364;52.418;7.382;2022-12-05T02:02:48;33.18;;;32.18;;
73154;SDS011;61364;52.418;7.382;2022-12-05T02:05:17;32.96;;;32.24;;
73154;SDS011;61364;52.418;7.382;2022-12-05T02:07:46;32.48;;;31.49;;
73154;SDS011;61364;52.418;7.382;2022-12-05T02:10:12;33.38;;;32.34;;
73154;SDS011;61364;52.418;7.382;2022-12-05T02:12:37;33.00;;;31.99;;
73154;SDS011;61364;52.418;7.382;2022-12-05T02:25:17;32.08;;;31.43;;
73154;SDS011;61364;52.418;7.382;2022-12-05T02:31:06;32.66;;;31.80;;
73154;SDS011;61364;52.418;7.382;2022-12-05T02:33:44;33.22;;;32.49;;
73154;SDS011;61364;52.418;7.382;2022-12-05T02:36:18;31.98;;;31.13;;
73154;SDS011;61364;52.418;7.382;2022-12-05T02:44:23;31.13;;;30.44;;
73154;SDS011;61364;52.418;7.382;2022-12-05T02:47:06;31.24;;;30.66;;
73154;SDS011;61364;52.418;7.382;2022-12-05T02:49:35;31.70;;;31.09;;
73154;SDS011;61364;52.418;7.382;2022-12-05T02:52:05;32.17;;;31.47;;
73154;SDS011;61364;52.418;7.382;2022-12-05T02:54:41;31.77;;;31.06;;
73154;SDS011;61364;52.418;7.382;2022-12-05T02:57:10;31.67;;;31.04;;
73154;SDS011;61364;52.418;7.382;2022-12-05T02:59:37;30.89;;;30.30;;
73154;SDS011;61364;52.418;7.382;2022-12-05T03:04:48;30.84;;;30.52;;
73154;SDS011;61364;52.418;7.382;2022-12-05T03:07:14;31.04;;;30.61;;
73154;SDS011;61364;52.418;7.382;2022-12-05T03:09:48;31.06;;;30.62;;
73154;SDS011;61364;52.418;7.382;2022-12-05T03:12:34;31.24;;;30.53;;
73154;SDS011;61364;52.418;7.382;2022-12-05T03:15:12;31.39;;;30.80;;
73154;SDS011;61364;52.418;7.382;2022-12-05T03:17:52;32.20;;;31.58;;
73154;SDS011;61364;52.418;7.382;2022-12-05T03:20:28;33.03;;;32.00;;
73154;SDS011;61364;52.418;7.382;2022-12-05T03:40:10;31.58;;;30.95;;
73154;SDS011;61364;52.418;7.382;2022-12-05T03:42:41;30.94;;;30.20;;
73154;SDS011;61364;52.418;7.382;2022-12-05T03:45:15;30.92;;;30.33;;
73154;SDS011;61364;52.418;7.382;2022-12-05T03:47:47;30.66;;;30.23;;
73154;SDS011;61364;52.418;7.382;2022-12-05T03:53:14;31.73;;;31.08;;
73154;SDS011;61364;52.418;7.382;2022-12-05T03:55:42;29.90;;;29.69;;
73154;SDS011;61364;52.418;7.382;2022-12-05T03:58:14;31.50;;;30.97;;
73154;SDS011;61364;52.418;7.382;2022-12-05T04:00:49;30.42;;;30.04;;
73154;SDS011;61364;52.418;7.382;2022-12-05T04:03:35;30.05;;;29.71;;
73154;SDS011;61364;52.418;7.382;2022-12-05T04:06:08;30.42;;;29.96;;
73154;SDS011;61364;52.418;7.382;2022-12-05T04:08:39;29.70;;;29.35;;
73154;SDS011;61364;52.418;7.382;2022-12-05T04:11:15;30.35;;;29.85;;
73154;SDS011;61364;52.418;7.382;2022-12-05T04:14:06;29.30;;;28.93;;
73154;SDS011;61364;52.418;7.382;2022-12-05T04:19:59;30.16;;;29.77;;
73154;SDS011;61364;52.418;7.382;2022-12-05T04:22:46;29.75;;;29.23;;
73154;SDS011;61364;52.418;7.382;2022-12-05T04:25:15;29.75;;;29.11;;
73154;SDS011;61364;52.418;7.382;2022-12-05T04:28:10;28.79;;;28.51;;
73154;SDS011;61364;52.418;7.382;2022-12-05T04:33:41;28.74;;;28.36;;
73154;SDS011;61364;52.418;7.382;2022-12-05T04:36:11;28.39;;;28.16;;
73154;SDS011;61364;52.418;7.382;2022-12-05T04:41:30;28.61;;;27.87;;
73154;SDS011;61364;52.418;7.382;2022-12-05T04:47:08;28.28;;;27.80;;
73154;SDS011;61364;52.418;7.382;2022-12-05T04:49:36;28.34;;;27.69;;
73154;SDS011;61364;52.418;7.382;2022-12-05T04:52:08;27.75;;;27.40;;
73154;SDS011;61364;52.418;7.382;2022-12-05T04:54:45;27.46;;;27.07;;
73154;SDS011;61364;52.418;7.382;2022-12-05T05:00:18;26.00;;;25.83;;
73154;SDS011;61364;52.418;7.382;2022-12-05T05:02:51;26.68;;;26.32;;
73154;SDS011;61364;52.418;7.382;2022-12-05T05:05:20;26.30;;;26.02;;
73154;SDS011;61364;52.418;7.382;2022-12-05T05:07:50;25.39;;;25.33;;
73154;SDS011;61364;52.418;7.382;2022-12-05T05:10:29;25.89;;;25.56;;
73154;SDS011;61364;52.418;7.382;2022-12-05T05:12:57;25.19;;;24.98;;
73154;SDS011;61364;52.418;7.382;2022-12-05T05:15:23;25.30;;;25.09;;
73154;SDS011;61364;52.418;7.382;2022-12-05T05:17:49;25.07;;;24.87;;
73154;SDS011;61364;52.418;7.382;2022-12-05T05:20:14;25.09;;;25.00;;
73154;SDS011;61364;52.418;7.382;2022-12-05T05:22:56;25.81;;;25.61;;
73154;SDS011;61364;52.418;7.382;2022-12-05T05:27:55;24.97;;;24.58;;
73154;SDS011;61364;52.418;7.382;2022-12-05T05:36:11;25.24;;;24.80;;
73154;SDS011;61364;52.418;7.382;2022-12-05T05:38:39;24.27;;;24.06;;
73154;SDS011;61364;52.418;7.382;2022-12-05T05:41:05;24.91;;;24.54;;
73154;SDS011;61364;52.418;7.382;2022-12-05T05:43:31;25.01;;;24.66;;
73154;SDS011;61364;52.418;7.382;2022-12-05T05:45:57;24.92;;;24.48;;
73154;SDS011;61364;52.418;7.382;2022-12-05T05:48:22;24.75;;;24.47;;
73154;SDS011;61364;52.418;7.382;2022-12-05T05:50:48;25.23;;;25.01;;
73154;SDS011;61364;52.418;7.382;2022-12-05T05:53:26;24.88;;;24.76;;
73154;SDS011;61364;52.418;7.382;2022-12-05T05:55:52;24.69;;;24.49;;
73154;SDS011;61364;52.418;7.382;2022-12-05T05:58:18;24.93;;;24.67;;
73154;SDS011;61364;52.418;7.382;2022-12-05T06:00:43;24.73;;;24.55;;
73154;SDS011;61364;52.418;7.382;2022-12-05T06:03:09;24.99;;;24.71;;
73154;SDS011;61364;52.418;7.382;2022-12-05T06:05:35;25.58;;;25.23;;
73154;SDS011;61364;52.418;7.382;2022-12-05T06:08:00;25.68;;;25.48;;
73154;SDS011;61364;52.418;7.382;2022-12-05T06:10:32;25.51;;;25.09;;
73154;SDS011;61364;52.418;7.382;2022-12-05T06:12:58;26.47;;;26.06;;
73154;SDS011;61364;52.418;7.382;2022-12-05T06:15:35;27.73;;;27.26;;
73154;SDS011;61364;52.418;7.382;2022-12-05T06:18:01;27.19;;;26.84;;
73154;SDS011;61364;52.418;7.382;2022-12-05T06:20:27;26.16;;;25.74;;
73154;SDS011;61364;52.418;7.382;2022-12-05T06:22:53;25.69;;;25.43;;
73154;SDS011;61364;52.418;7.382;2022-12-05T06:25:18;27.16;;;26.96;;
73154;SDS011;61364;52.418;7.382;2022-12-05T06:27:44;25.63;;;25.47;;
73154;SDS011;61364;52.418;7.382;2022-12-05T06:30:10;25.42;;;25.24;;
73154;SDS011;61364;52.418;7.382;2022-12-05T06:32:35;25.27;;;25.02;;
73154;SDS011;61364;52.418;7.382;2022-12-05T06:37:46;25.23;;;24.89;;
73154;SDS011;61364;52.418;7.382;2022-12-05T06:40:14;24.42;;;24.21;;
73154;SDS011;61364;52.418;7.382;2022-12-05T06:42:40;25.21;;;25.07;;
73154;SDS011;61364;52.418;7.382;2022-12-05T06:45:05;25.97;;;25.60;;
73154;SDS011;61364;52.418;7.382;2022-12-05T06:47:31;26.04;;;25.59;;
73154;SDS011;61364;52.418;7.382;2022-12-05T06:49:59;26.30;;;26.02;;
73154;SDS011;61364;52.418;7.382;2022-12-05T06:52:25;26.79;;;26.43;;
73154;SDS011;61364;52.418;7.382;2022-12-05T06:54:51;26.55;;;26.05;;
73154;SDS011;61364;52.418;7.382;2022-12-05T06:59:53;26.81;;;26.39;;
73154;SDS011;61364;52.418;7.382;2022-12-05T07:02:38;27.69;;;27.25;;
73154;SDS011;61364;52.418;7.382;2022-12-05T07:05:23;26.81;;;26.46;;
73154;SDS011;61364;52.418;7.382;2022-12-05T07:07:48;27.89;;;27.27;;
73154;SDS011;61364;52.418;7.382;2022-12-05T07:10:15;27.74;;;27.23;;
73154;SDS011;61364;52.418;7.382;2022-12-05T07:12:40;27.27;;;26.90;;
73154;SDS011;61364;52.418;7.382;2022-12-05T07:15:13;28.30;;;27.53;;
73154;SDS011;61364;52.418;7.382;2022-12-05T07:17:39;28.34;;;27.93;;
73154;SDS011;61364;52.418;7.382;2022-12-05T07:22:46;27.68;;;27.42;;
73154;SDS011;61364;52.418;7.382;2022-12-05T07:28:21;29.51;;;29.07;;
73154;SDS011;61364;52.418;7.382;2022-12-05T07:30:46;30.13;;;29.48;;
73154;SDS011;61364;52.418;7.382;2022-12-05T07:36:15;30.77;;;29.77;;
73154;SDS011;61364;52.418;7.382;2022-12-05T07:41:48;32.86;;;31.86;;
73154;SDS011;61364;52.418;7.382;2022-12-05T07:44:13;32.86;;;31.97;;
73154;SDS011;61364;52.418;7.382;2022-12-05T07:56:00;35.00;;;33.63;;
73154;SDS011;61364;52.418;7.382;2022-12-05T07:58:27;33.92;;;32.89;;
73154;SDS011;61364;52.418;7.382;2022-12-05T08:00:53;34.27;;;33.40;;
73154;SDS011;61364;52.418;7.382;2022-12-05T08:06:11;33.35;;;32.35;;
73154;SDS011;61364;52.418;7.382;2022-12-05T08:08:46;32.86;;;32.03;;
73154;SDS011;61364;52.418;7.382;2022-12-05T08:11:17;33.31;;;32.48;;
73154;SDS011;61364;52.418;7.382;2022-12-05T08:13:52;33.20;;;32.22;;
73154;SDS011;61364;52.418;7.382;2022-12-05T08:16:19;32.35;;;31.18;;
73154;SDS011;61364;52.418;7.382;2022-12-05T08:21:48;31.85;;;30.91;;
73154;SDS011;61364;52.418;7.382;2022-12-05T08:26:49;30.91;;;30.07;;
73154;SDS011;61364;52.418;7.382;2022-12-05T08:35:19;29.94;;;29.18;;
73154;SDS011;61364;52.418;7.382;2022-12-05T08:40:20;29.07;;;28.44;;
73154;SDS011;61364;52.418;7.382;2022-12-05T08:42:46;29.04;;;28.46;;
73154;SDS011;61364;52.418;7.382;2022-12-05T08:45:11;27.89;;;27.48;;
73154;SDS011;61364;52.418;7.382;2022-12-05T08:47:37;29.41;;;28.43;;
73154;SDS011;61364;52.418;7.382;2022-12-05T08:50:02;30.18;;;29.10;;
73154;SDS011;61364;52.418;7.382;2022-12-05T08:52:28;28.18;;;27.58;;
73154;SDS011;61364;52.418;7.382;2022-12-05T08:54:53;28.72;;;28.08;;
73154;SDS011;61364;52.418;7.382;2022-12-05T08:57:21;27.87;;;27.42;;
73154;SDS011;61364;52.418;7.382;2022-12-05T08:59:46;27.38;;;26.82;;
73154;SDS011;61364;52.418;7.382;2022-12-05T09:04:59;27.36;;;26.88;;
73154;SDS011;61364;52.418;7.382;2022-12-05T09:10:10;27.44;;;26.97;;
73154;SDS011;61364;52.418;7.382;2022-12-05T09:12:38;28.22;;;27.50;;
73154;SDS011;61364;52.418;7.382;2022-12-05T09:15:09;26.76;;;26.03;;
73154;SDS011;61364;52.418;7.382;2022-12-05T09:17:35;26.81;;;26.21;;
73154;SDS011;61364;52.418;7.382;2022-12-05T09:20:01;26.23;;;25.82;;
73154;SDS011;61364;52.418;7.382;2022-12-05T09:24:56;26.78;;;25.96;;
73154;SDS011;61364;52.418;7.382;2022-12-05T09:27:21;27.04;;;26.41;;
73154;SDS011;61364;52.418;7.382;2022-12-05T09:29:47;25.53;;;24.86;;
73154;SDS011;61364;52.418;7.382;2022-12-05T09:32:12;24.96;;;24.52;;
73154;SDS011;61364;52.418;7.382;2022-12-05T09:37:35;23.85;;;23.39;;
73154;SDS011;61364;52.418;7.382;2022-12-05T09:40:01;24.16;;;23.73;;
73154;SDS011;61364;52.418;7.382;2022-12-05T09:50:45;22.45;;;22.18;;
73154;SDS011;61364;52.418;7.382;2022-12-05T09:53:29;22.51;;;22.18;;
73154;SDS011;61364;52.418;7.382;2022-12-05T10:06:58;21.48;;;21.06;;
73154;SDS011;61364;52.418;7.382;2022-12-05T10:18:25;20.72;;;20.42;;
73154;SDS011;61364;52.418;7.382;2022-12-05T10:21:04;20.97;;;20.62;;
73154;SDS011;61364;52.418;7.382;2022-12-05T10:23:37;21.19;;;20.99;;
73154;SDS011;61364;52.418;7.382;2022-12-05T10:26:24;20.30;;;19.98;;
73154;SDS011;61364;52.418;7.382;2022-12-05T10:31:32;19.56;;;19.37;;
73154;SDS011;61364;52.418;7.382;2022-12-05T10:34:05;19.67;;;19.49;;
73154;SDS011;61364;52.418;7.382;2022-12-05T10:36:36;19.18;;;19.02;;
73154;SDS011;61364;52.418;7.382;2022-12-05T10:39:02;19.68;;;19.38;;
73154;SDS011;61364;52.418;7.382;2022-12-05T10:41:27;20.70;;;20.23;;
73154;SDS011;61364;52.418;7.382;2022-12-05T10:43:53;19.48;;;19.34;;
73154;SDS011;61364;52.418;7.382;2022-12-05T10:46:21;19.22;;;18.85;;
73154;SDS011;61364;52.418;7.382;2022-12-05T10:48:47;18.96;;;18.81;;
73154;SDS011;61364;52.418;7.382;2022-12-05T10:51:16;18.43;;;18.39;;
73154;SDS011;61364;52.418;7.382;2022-12-05T10:53:44;18.03;;;17.93;;
73154;SDS011;61364;52.418;7.382;2022-12-05T10:58:56;17.90;;;17.81;;
73154;SDS011;61364;52.418;7.382;2022-12-05T11:01:22;18.45;;;18.33;;
73154;SDS011;61364;52.418;7.382;2022-12-05T11:03:54;17.76;;;17.70;;
73154;SDS011;61364;52.418;7.382;2022-12-05T11:06:24;18.74;;;18.34;;
73154;SDS011;61364;52.418;7.382;2022-12-05T11:08:52;17.77;;;17.47;;
73154;SDS011;61364;52.418;7.382;2022-12-05T11:13:55;17.27;;;17.12;;
73154;SDS011;61364;52.418;7.382;2022-12-05T11:16:29;16.54;;;16.36;;
73154;SDS011;61364;52.418;7.382;2022-12-05T11:18:55;15.85;;;15.72;;
73154;SDS011;61364;52.418;7.382;2022-12-05T11:21:21;16.11;;;15.85;;
73154;SDS011;61364;52.418;7.382;2022-12-05T11:26:49;15.38;;;15.36;;
73154;SDS011;61364;52.418;7.382;2022-12-05T11:32:00;14.92;;;14.88;;
73154;SDS011;61364;52.418;7.382;2022-12-05T11:34:33;15.35;;;15.34;;
73154;SDS011;61364;52.418;7.382;2022-12-05T11:37:10;14.69;;;14.61;;
73154;SDS011;61364;52.418;7.382;2022-12-05T11:39:39;14.63;;;14.59;;
73154;SDS011;61364;52.418;7.382;2022-12-05T11:44:39;14.60;;;14.50;;
73154;SDS011;61364;52.418;7.382;2022-12-05T11:47:16;14.58;;;14.39;;
73154;SDS011;61364;52.418;7.382;2022-12-05T11:49:57;13.81;;;13.57;;
73154;SDS011;61364;52.418;7.382;2022-12-05T11:53:00;14.12;;;13.92;;
73154;SDS011;61364;52.418;7.382;2022-12-05T11:55:41;13.75;;;13.70;;
73154;SDS011;61364;52.418;7.382;2022-12-05T12:01:06;12.89;;;12.79;;
73154;SDS011;61364;52.418;7.382;2022-12-05T12:06:18;12.72;;;12.62;;
73154;SDS011;61364;52.418;7.382;2022-12-05T12:16:34;11.94;;;11.93;;
73154;SDS011;61364;52.418;7.382;2022-12-05T12:21:50;11.20;;;11.16;;
73154;SDS011;61364;52.418;7.382;2022-12-05T12:32:29;10.41;;;10.31;;
73154;SDS011;61364;52.418;7.382;2022-12-05T12:45:39;9.02;;;9.02;;
73154;SDS011;61364;52.418;7.382;2022-12-05T12:51:11;9.53;;;9.53;;
73154;SDS011;61364;52.418;7.382;2022-12-05T12:58:49;14.38;;;14.38;;
73154;SDS011;61364;52.418;7.382;2022-12-05T13:04:18;9.81;;;9.81;;
73154;SDS011;61364;52.418;7.382;2022-12-05T13:06:55;9.13;;;9.13;;
73154;SDS011;61364;52.418;7.382;2022-12-05T13:09:27;9.39;;;9.39;;
73154;SDS011;61364;52.418;7.382;2022-12-05T13:15:06;8.84;;;8.84;;
73154;SDS011;61364;52.418;7.382;2022-12-05T13:17:38;8.52;;;8.52;;
73154;SDS011;61364;52.418;7.382;2022-12-05T13:20:17;9.00;;;9.00;;
73154;SDS011;61364;52.418;7.382;2022-12-05T13:22:45;8.67;;;8.67;;
73154;SDS011;61364;52.418;7.382;2022-12-05T13:25:15;9.03;;;9.03;;
73154;SDS011;61364;52.418;7.382;2022-12-05T13:27:52;8.86;;;8.86;;
73154;SDS011;61364;52.418;7.382;2022-12-05T13:30:31;8.42;;;8.42;;
73154;SDS011;61364;52.418;7.382;2022-12-05T13:33:17;8.62;;;8.62;;
73154;SDS011;61364;52.418;7.382;2022-12-05T13:41:55;8.81;;;8.81;;
73154;SDS011;61364;52.418;7.382;2022-12-05T13:44:41;8.95;;;8.95;;
73154;SDS011;61364;52.418;7.382;2022-12-05T13:59:09;9.65;;;9.65;;
73154;SDS011;61364;52.418;7.382;2022-12-05T14:01:42;17.41;;;17.28;;
73154;SDS011;61364;52.418;7.382;2022-12-05T14:30:21;9.51;;;9.51;;
73154;SDS011;61364;52.418;7.382;2022-12-05T14:32:50;9.73;;;9.73;;
73154;SDS011;61364;52.418;7.382;2022-12-05T14:38:29;10.16;;;10.14;;
73154;SDS011;61364;52.418;7.382;2022-12-05T14:46:45;11.14;;;11.14;;
73154;SDS011;61364;52.418;7.382;2022-12-05T14:55:16;11.58;;;11.56;;
73154;SDS011;61364;52.418;7.382;2022-12-05T14:57:45;11.79;;;11.79;;
73154;SDS011;61364;52.418;7.382;2022-12-05T15:00:22;10.53;;;10.53;;
73154;SDS011;61364;52.418;7.382;2022-12-05T15:02:48;10.62;;;10.62;;
73154;SDS011;61364;52.418;7.382;2022-12-05T15:05:24;9.58;;;9.58;;
73154;SDS011;61364;52.418;7.382;2022-12-05T15:08:00;9.28;;;9.28;;
73154;SDS011;61364;52.418;7.382;2022-12-05T15:10:35;9.87;;;9.87;;
73154;SDS011;61364;52.418;7.382;2022-12-05T15:15:59;10.40;;;10.40;;
73154;SDS011;61364;52.418;7.382;2022-12-05T15:21:46;10.24;;;10.24;;
73154;SDS011;61364;52.418;7.382;2022-12-05T15:24:16;9.66;;;9.66;;
73154;SDS011;61364;52.418;7.382;2022-12-05T15:29:27;9.12;;;9.12;;
73154;SDS011;61364;52.418;7.382;2022-12-05T15:42:47;14.02;;;14.02;;
73154;SDS011;61364;52.418;7.382;2022-12-05T15:47:50;14.67;;;14.63;;
73154;SDS011;61364;52.418;7.382;2022-12-05T16:02:23;19.15;;;19.02;;
73154;SDS011;61364;52.418;7.382;2022-12-05T16:04:54;15.04;;;15.02;;
73154;SDS011;61364;52.418;7.382;2022-12-05T16:13:13;13.89;;;13.77;;
73154;SDS011;61364;52.418;7.382;2022-12-05T16:15:51;14.14;;;14.13;;
73154;SDS011;61364;52.418;7.382;2022-12-05T16:18:31;15.47;;;15.47;;
73154;SDS011;61364;52.418;7.382;2022-12-05T16:20:57;21.05;;;21.05;;
73154;SDS011;61364;52.418;7.382;2022-12-05T16:23:27;20.47;;;20.44;;
73154;SDS011;61364;52.418;7.382;2022-12-05T16:28:39;16.37;;;16.37;;
73154;SDS011;61364;52.418;7.382;2022-12-05T16:31:05;15.51;;;15.51;;
73154;SDS011;61364;52.418;7.382;2022-12-05T16:33:37;14.13;;;14.13;;
73154;SDS011;61364;52.418;7.382;2022-12-05T16:36:09;14.35;;;14.35;;
73154;SDS011;61364;52.418;7.382;2022-12-05T16:41:07;13.81;;;13.81;;
73154;SDS011;61364;52.418;7.382;2022-12-05T16:51:42;12.89;;;12.89;;
73154;SDS011;61364;52.418;7.382;2022-12-05T16:54:09;12.77;;;12.77;;
73154;SDS011;61364;52.418;7.382;2022-12-05T16:56:43;12.07;;;12.07;;
73154;SDS011;61364;52.418;7.382;2022-12-05T16:59:12;13.78;;;13.78;;
73154;SDS011;61364;52.418;7.382;2022-12-05T17:01:44;11.11;;;11.11;;
73154;SDS011;61364;52.418;7.382;2022-12-05T17:04:23;14.47;;;14.47;;
73154;SDS011;61364;52.418;7.382;2022-12-05T17:06:48;15.74;;;15.73;;
73154;SDS011;61364;52.418;7.382;2022-12-05T17:15:12;12.73;;;12.73;;
73154;SDS011;61364;52.418;7.382;2022-12-05T17:17:59;12.04;;;12.04;;
73154;SDS011;61364;52.418;7.382;2022-12-05T17:23:28;10.94;;;10.94;;
73154;SDS011;61364;52.418;7.382;2022-12-05T17:26:00;10.79;;;10.79;;
73154;SDS011;61364;52.418;7.382;2022-12-05T17:28:25;10.62;;;10.58;;
73154;SDS011;61364;52.418;7.382;2022-12-05T17:30:51;9.86;;;9.83;;
73154;SDS011;61364;52.418;7.382;2022-12-05T17:36:07;9.49;;;9.49;;
73154;SDS011;61364;52.418;7.382;2022-12-05T17:38:33;9.20;;;9.20;;
73154;SDS011;61364;52.418;7.382;2022-12-05T17:43:47;8.96;;;8.95;;
73154;SDS011;61364;52.418;7.382;2022-12-05T17:46:15;8.47;;;8.47;;
73154;SDS011;61364;52.418;7.382;2022-12-05T17:51:26;113.33;;;106.06;;
73154;SDS011;61364;52.418;7.382;2022-12-05T17:53:53;20.65;;;20.26;;
73154;SDS011;61364;52.418;7.382;2022-12-05T17:58:49;14.55;;;14.46;;
73154;SDS011;61364;52.418;7.382;2022-12-05T18:01:19;14.02;;;14.02;;
73154;SDS011;61364;52.418;7.382;2022-12-05T18:03:45;16.44;;;16.33;;
73154;SDS011;61364;52.418;7.382;2022-12-05T18:06:11;17.80;;;17.65;;
73154;SDS011;61364;52.418;7.382;2022-12-05T18:11:41;17.51;;;17.43;;
73154;SDS011;61364;52.418;7.382;2022-12-05T18:14:07;15.27;;;15.18;;
73154;SDS011;61364;52.418;7.382;2022-12-05T18:16:34;14.79;;;14.78;;
73154;SDS011;61364;52.418;7.382;2022-12-05T18:19:00;11.77;;;11.77;;
73154;SDS011;61364;52.418;7.382;2022-12-05T18:21:27;11.88;;;11.88;;
73154;SDS011;61364;52.418;7.382;2022-12-05T18:23:53;13.13;;;13.13;;
73154;SDS011;61364;52.418;7.382;2022-12-05T18:26:19;13.42;;;13.42;;
73154;SDS011;61364;52.418;7.382;2022-12-05T18:28:44;13.54;;;13.54;;
73154;SDS011;61364;52.418;7.382;2022-12-05T18:31:12;13.98;;;13.94;;
73154;SDS011;61364;52.418;7.382;2022-12-05T18:33:40;10.09;;;10.09;;
73154;SDS011;61364;52.418;7.382;2022-12-05T18:36:16;8.84;;;8.84;;
73154;SDS011;61364;52.418;7.382;2022-12-05T18:38:47;9.01;;;9.01;;
73154;SDS011;61364;52.418;7.382;2022-12-05T18:43:50;9.88;;;9.88;;
73154;SDS011;61364;52.418;7.382;2022-12-05T18:46:30;13.40;;;13.40;;
73154;SDS011;61364;52.418;7.382;2022-12-05T18:48:56;13.36;;;13.36;;
73154;SDS011;61364;52.418;7.382;2022-12-05T18:51:22;12.38;;;12.36;;
73154;SDS011;61364;52.418;7.382;2022-12-05T18:53:49;11.37;;;11.37;;
73154;SDS011;61364;52.418;7.382;2022-12-05T18:59:02;11.17;;;11.17;;
73154;SDS011;61364;52.418;7.382;2022-12-05T19:01:31;12.42;;;12.42;;
73154;SDS011;61364;52.418;7.382;2022-12-05T19:03:58;12.33;;;12.33;;
73154;SDS011;61364;52.418;7.382;2022-12-05T19:06:26;11.18;;;11.18;;
73154;SDS011;61364;52.418;7.382;2022-12-05T19:11:57;11.74;;;11.74;;
73154;SDS011;61364;52.418;7.382;2022-12-05T19:14:42;11.40;;;11.40;;
73154;SDS011;61364;52.418;7.382;2022-12-05T19:17:09;10.96;;;10.96;;
73154;SDS011;61364;52.418;7.382;2022-12-05T19:19:35;11.71;;;11.71;;
73154;SDS011;61364;52.418;7.382;2022-12-05T19:22:01;12.79;;;12.79;;
73154;SDS011;61364;52.418;7.382;2022-12-05T19:30:32;10.48;;;10.48;;
73154;SDS011;61364;52.418;7.382;2022-12-05T19:32:57;10.51;;;10.51;;
73154;SDS011;61364;52.418;7.382;2022-12-05T19:38:17;9.65;;;9.65;;
73154;SDS011;61364;52.418;7.382;2022-12-05T19:40:43;9.21;;;9.21;;
73154;SDS011;61364;52.418;7.382;2022-12-05T19:46:06;9.70;;;9.60;;
73154;SDS011;61364;52.418;7.382;2022-12-05T19:51:20;10.75;;;10.75;;
73154;SDS011;61364;52.418;7.382;2022-12-05T19:56:46;16.78;;;16.78;;
73154;SDS011;61364;52.418;7.382;2022-12-05T19:59:13;13.25;;;13.25;;
73154;SDS011;61364;52.418;7.382;2022-12-05T20:01:41;12.22;;;12.22;;
73154;SDS011;61364;52.418;7.382;2022-12-05T20:04:19;12.65;;;12.65;;
73154;SDS011;61364;52.418;7.382;2022-12-05T20:06:48;12.31;;;12.30;;
73154;SDS011;61364;52.418;7.382;2022-12-05T20:09:15;11.00;;;10.95;;
73154;SDS011;61364;52.418;7.382;2022-12-05T20:14:44;9.97;;;9.97;;
73154;SDS011;61364;52.418;7.382;2022-12-05T20:19:50;10.09;;;10.03;;
73154;SDS011;61364;52.418;7.382;2022-12-05T20:24:57;9.12;;;9.12;;
73154;SDS011;61364;52.418;7.382;2022-12-05T20:27:23;8.88;;;8.88;;
73154;SDS011;61364;52.418;7.382;2022-12-05T20:35:39;8.59;;;8.59;;
73154;SDS011;61364;52.418;7.382;2022-12-05T20:40:39;8.58;;;8.58;;
73154;SDS011;61364;52.418;7.382;2022-12-05T20:43:05;8.76;;;8.76;;
73154;SDS011;61364;52.418;7.382;2022-12-05T20:45:49;8.51;;;8.51;;
73154;SDS011;61364;52.418;7.382;2022-12-05T20:48:14;8.40;;;8.40;;
73154;SDS011;61364;52.418;7.382;2022-12-05T20:53:40;9.11;;;9.11;;
73154;SDS011;61364;52.418;7.382;2022-12-05T20:56:09;8.78;;;8.78;;
73154;SDS011;61364;52.418;7.382;2022-12-05T20:58:36;8.97;;;8.96;;
73154;SDS011;61364;52.418;7.382;2022-12-05T21:01:02;9.23;;;9.19;;
73154;SDS011;61364;52.418;7.382;2022-12-05T21:03:40;9.06;;;9.06;;
73154;SDS011;61364;52.418;7.382;2022-12-05T21:06:10;9.31;;;9.31;;
73154;SDS011;61364;52.418;7.382;2022-12-05T21:11:39;9.17;;;9.17;;
73154;SDS011;61364;52.418;7.382;2022-12-05T21:14:07;8.98;;;8.97;;
73154;SDS011;61364;52.418;7.382;2022-12-05T21:16:33;8.99;;;8.99;;
73154;SDS011;61364;52.418;7.382;2022-12-05T21:18:58;9.42;;;9.42;;
73154;SDS011;61364;52.418;7.382;2022-12-05T21:24:09;9.29;;;9.29;;
73154;SDS011;61364;52.418;7.382;2022-12-05T21:29:44;9.44;;;9.44;;
73154;SDS011;61364;52.418;7.382;2022-12-05T21:32:23;9.61;;;9.60;;
73154;SDS011;61364;52.418;7.382;2022-12-05T21:34:48;9.68;;;9.68;;
73154;SDS011;61364;52.418;7.382;2022-12-05T21:37:14;10.02;;;10.02;;
73154;SDS011;61364;52.418;7.382;2022-12-05T21:39:42;9.69;;;9.69;;
73154;SDS011;61364;52.418;7.382;2022-12-05T21:42:14;10.27;;;10.27;;
73154;SDS011;61364;52.418;7.382;2022-12-05T21:44:40;10.14;;;10.03;;